createdAt,value
2023-01-15T00:02:18.159Z,99782.56
2023-01-15T00:04:45.340Z,99783.50
2023-01-15T00:07:12.453Z,99769.63
2023-01-15T00:09:39.407Z,99773.22
2023-01-15T00:12:06.476Z,99775.03
2023-01-15T00:14:33.439Z,99768.19
2023-01-15T00:17:00.464Z,99758.59
2023-01-15T00:19:27.482Z,99765.66
2023-01-15T00:21:54.437Z,99770.97
2023-01-15T00:24:40.271Z,99769.25
2023-01-15T00:27:29.511Z,99775.38
2023-01-15T00:29:56.829Z,99765.88
2023-01-15T00:32:27.082Z,99760.63
2023-01-15T00:34:56.663Z,99778.22
2023-01-15T00:37:23.675Z,99773.00
2023-01-15T00:39:50.720Z,99753.84
2023-01-15T00:42:18.023Z,99753.06
2023-01-15T00:44:46.795Z,99757.44
2023-01-15T00:47:14.816Z,99755.72
2023-01-15T00:49:43.188Z,99753.09
2023-01-15T00:52:11.571Z,99761.88
2023-01-15T00:54:38.612Z,99756.63
2023-01-15T00:57:05.574Z,99787.22
2023-01-15T00:59:32.705Z,99780.25
2023-01-15T01:01:59.785Z,99781.16
2023-01-15T01:04:26.928Z,99782.06
2023-01-15T01:06:54.279Z,99789.09
2023-01-15T01:09:21.531Z,99782.19
2023-01-15T01:11:50.536Z,99776.94
2023-01-15T01:14:17.563Z,99783.09
2023-01-15T01:16:44.704Z,99786.63
2023-01-15T01:19:18.797Z,99785.75
2023-01-15T01:21:47.807Z,99788.41
2023-01-15T01:24:21.996Z,99782.31
2023-01-15T01:26:51.116Z,99787.66
2023-01-15T01:29:22.375Z,99785.03
2023-01-15T01:31:51.101Z,99782.44
2023-01-15T01:34:19.191Z,99784.28
2023-01-15T01:36:46.228Z,99793.06
2023-01-15T01:39:17.593Z,99801.81
2023-01-15T01:41:45.377Z,99796.59
2023-01-15T01:44:37.208Z,99787.97
2023-01-15T01:47:15.438Z,99787.19
2023-01-15T01:49:45.011Z,99788.13
2023-01-15T01:52:32.786Z,99798.66
2023-01-15T01:55:02.513Z,99803.06
2023-01-15T01:57:30.613Z,99792.59
2023-01-15T02:00:01.024Z,99798.72
2023-01-15T02:02:28.959Z,99795.19
2023-01-15T02:04:56.383Z,99780.41
2023-01-15T02:07:23.704Z,99785.63
2023-01-15T02:09:50.682Z,99783.91
2023-01-15T02:12:27.631Z,99790.88
2023-01-15T02:15:09.702Z,99798.75
2023-01-15T02:17:57.602Z,99792.69
2023-01-15T02:20:39.498Z,99801.47
2023-01-15T02:23:47.870Z,99799.66
2023-01-15T02:26:43.791Z,99797.09
2023-01-15T02:29:23.225Z,99791.84
2023-01-15T02:31:52.829Z,99796.25
2023-01-15T02:34:31.220Z,99781.44
2023-01-15T02:37:15.544Z,99786.59
2023-01-15T02:39:48.041Z,99801.50
2023-01-15T02:42:19.386Z,99784.94
2023-01-15T02:44:53.912Z,99795.41
2023-01-15T02:47:29.269Z,99784.06
2023-01-15T02:50:05.192Z,99761.53
2023-01-15T02:52:47.097Z,99765.03
2023-01-15T02:55:26.417Z,99766.09
2023-01-15T02:58:00.498Z,99769.66
2023-01-15T03:00:35.912Z,99753.16
2023-01-15T03:03:46.429Z,99750.66
2023-01-15T03:06:25.391Z,99749.91
2023-01-15T03:08:52.757Z,99748.19
2023-01-15T03:11:20.731Z,99756.13
2023-01-15T03:14:16.636Z,99753.56
2023-01-15T03:16:57.865Z,99764.03
2023-01-15T03:19:49.132Z,99768.38
2023-01-15T03:22:41.676Z,99769.28
2023-01-15T03:25:25.231Z,99771.13
2023-01-15T03:27:59.649Z,99775.53
2023-01-15T03:30:27.910Z,99770.28
2023-01-15T03:32:55.584Z,99764.19
2023-01-15T03:35:52.898Z,99755.44
2023-01-15T03:38:39.402Z,99756.34
2023-01-15T03:41:40.968Z,99758.09
2023-01-15T03:45:01.300Z,99757.22
2023-01-15T03:47:49.367Z,99751.09
2023-01-15T03:50:35.970Z,99752.88
2023-01-15T03:53:19.901Z,99759.91
2023-01-15T03:56:06.114Z,99758.19
2023-01-15T03:58:47.695Z,99768.66
2023-01-15T04:01:28.088Z,99777.47
2023-01-15T04:03:59.729Z,99771.34
2023-01-15T04:06:32.087Z,99760.94
2023-01-15T04:09:00.271Z,99765.28
2023-01-15T04:11:29.209Z,99775.78
2023-01-15T04:14:02.308Z,99767.06
2023-01-15T04:16:39.278Z,99774.06
2023-01-15T04:19:06.935Z,99754.03
2023-01-15T04:21:37.253Z,99758.47
2023-01-15T04:24:04.626Z,99759.41
2023-01-15T04:26:31.594Z,99765.53
2023-01-15T04:28:58.602Z,99762.06
2023-01-15T04:31:25.766Z,99745.50
2023-01-15T04:33:52.730Z,99756.91
2023-01-15T04:36:19.857Z,99767.38
2023-01-15T04:38:46.908Z,99760.34
2023-01-15T04:41:32.685Z,99748.16
2023-01-15T04:44:09.163Z,99755.25
2023-01-15T04:46:44.053Z,99755.25
2023-01-15T04:49:18.178Z,99760.63
2023-01-15T04:51:46.472Z,99750.16
2023-01-15T04:54:16.199Z,99754.53
2023-01-15T04:56:47.685Z,99768.47
2023-01-15T04:59:17.403Z,99764.13
2023-01-15T05:01:58.055Z,99767.56
2023-01-15T05:04:30.590Z,99790.16
2023-01-15T05:06:57.876Z,99784.03
2023-01-15T05:09:24.900Z,99785.81
2023-01-15T05:11:51.930Z,99786.66
2023-01-15T05:14:18.978Z,99787.47
2023-01-15T05:16:45.951Z,99776.94
2023-01-15T05:19:13.210Z,99785.63
2023-01-15T05:21:43.947Z,99771.72
2023-01-15T05:24:16.510Z,99779.56
2023-01-15T05:26:45.184Z,99769.28
2023-01-15T05:29:13.726Z,99771.09
2023-01-15T05:31:42.648Z,99768.53
2023-01-15T05:34:11.099Z,99772.03
2023-01-15T05:36:38.172Z,99771.97
2023-01-15T05:39:05.547Z,99766.75
2023-01-15T05:41:51.076Z,99774.56
2023-01-15T05:44:26.763Z,99770.19
2023-01-15T05:47:05.764Z,99758.91
2023-01-15T05:49:34.313Z,99754.53
2023-01-15T05:52:02.226Z,99768.47
2023-01-15T05:54:33.628Z,99758.06
2023-01-15T05:57:01.626Z,99765.94
2023-01-15T05:59:31.681Z,99756.34
2023-01-15T06:01:59.862Z,99746.81
2023-01-15T06:04:27.117Z,99754.81
2023-01-15T06:06:56.561Z,99761.66
2023-01-15T06:09:28.883Z,99761.69
2023-01-15T06:11:58.853Z,99758.22
2023-01-15T06:14:25.986Z,99757.41
2023-01-15T06:16:53.122Z,99747.81
2023-01-15T06:19:20.181Z,99741.66
2023-01-15T06:21:47.367Z,99761.75
2023-01-15T06:24:16.732Z,99780.91
2023-01-15T06:26:44.064Z,99769.59
2023-01-15T06:29:11.274Z,99775.69
2023-01-15T06:31:38.321Z,99778.28
2023-01-15T06:34:05.488Z,99778.28
2023-01-15T06:36:32.623Z,99774.78
2023-01-15T06:38:59.694Z,99761.66
2023-01-15T06:41:45.756Z,99795.50
2023-01-15T06:44:36.264Z,99779.75
2023-01-15T06:47:20.428Z,99772.88
2023-01-15T06:49:50.486Z,99782.56
2023-01-15T06:52:17.524Z,99786.06
2023-01-15T06:54:44.690Z,99793.81
2023-01-15T06:57:11.719Z,99791.16
2023-01-15T06:59:38.747Z,99794.56
2023-01-15T07:02:05.796Z,99793.53
2023-01-15T07:04:33.351Z,99785.63
2023-01-15T07:07:00.351Z,99777.78
2023-01-15T07:09:27.535Z,99792.66
2023-01-15T07:11:54.790Z,99790.16
2023-01-15T07:14:25.237Z,99793.00
2023-01-15T07:16:52.838Z,99804.44
2023-01-15T07:19:20.620Z,99799.41
2023-01-15T07:21:48.837Z,99805.66
2023-01-15T07:24:17.395Z,99805.78
2023-01-15T07:26:45.971Z,99810.16
2023-01-15T07:29:17.678Z,99815.47
2023-01-15T07:31:45.200Z,99812.00
2023-01-15T07:34:12.562Z,99799.84
2023-01-15T07:36:39.523Z,99808.63
2023-01-15T07:39:09.259Z,99814.78
2023-01-15T07:41:55.738Z,99823.56
2023-01-15T07:44:42.061Z,99821.06
2023-01-15T07:47:43.508Z,99823.50
2023-01-15T07:50:20.995Z,99823.00
2023-01-15T07:52:48.433Z,99819.50
2023-01-15T07:55:15.747Z,99825.69
2023-01-15T07:57:43.389Z,99817.06
2023-01-15T08:00:21.123Z,99835.38
2023-01-15T08:02:50.658Z,99840.53
2023-01-15T08:05:18.980Z,99840.38
2023-01-15T08:07:45.949Z,99820.66
2023-01-15T08:10:14.586Z,99826.34
2023-01-15T08:13:00.548Z,99827.00
2023-01-15T08:15:33.453Z,99822.44
2023-01-15T08:18:00.531Z,99821.34
2023-01-15T08:20:27.731Z,99830.66
2023-01-15T08:22:54.825Z,99834.91
2023-01-15T08:25:25.255Z,99833.03
2023-01-15T08:27:53.803Z,99838.22
2023-01-15T08:30:24.964Z,99833.94
2023-01-15T08:32:52.986Z,99827.88
2023-01-15T08:35:20.212Z,99829.63
2023-01-15T08:37:47.339Z,99831.47
2023-01-15T08:40:14.575Z,99839.31
2023-01-15T08:42:41.695Z,99834.78
2023-01-15T08:45:09.974Z,99836.56
2023-01-15T08:47:37.617Z,99832.16
2023-01-15T08:50:07.694Z,99840.84
2023-01-15T08:52:34.846Z,99832.97
2023-01-15T08:55:02.034Z,99827.75
2023-01-15T08:57:29.186Z,99836.41
2023-01-15T08:59:56.193Z,99825.34
2023-01-15T09:02:23.243Z,99823.97
2023-01-15T09:04:52.397Z,99823.34
2023-01-15T09:07:19.387Z,99832.34
2023-01-15T09:09:46.558Z,99834.25
2023-01-15T09:12:14.267Z,99847.41
2023-01-15T09:14:57.976Z,99837.84
2023-01-15T09:17:28.771Z,99837.00
2023-01-15T09:19:56.229Z,99832.66
2023-01-15T09:22:23.472Z,99823.16
2023-01-15T09:24:51.061Z,99825.72
2023-01-15T09:27:18.178Z,99830.06
2023-01-15T09:29:45.201Z,99828.22
2023-01-15T09:32:12.328Z,99829.84
2023-01-15T09:34:39.554Z,99829.88
2023-01-15T09:37:06.798Z,99827.19
2023-01-15T09:39:33.828Z,99825.38
2023-01-15T09:42:15.896Z,99833.00
2023-01-15T09:45:18.681Z,99847.72
2023-01-15T09:48:20.422Z,99835.19
2023-01-15T09:51:16.681Z,99839.19
2023-01-15T09:53:58.130Z,99841.59
2023-01-15T09:56:29.642Z,99837.94
2023-01-15T09:59:01.419Z,99833.28
2023-01-15T10:01:33.418Z,99830.34
2023-01-15T10:04:31.559Z,99820.69
2023-01-15T10:07:54.263Z,99838.13
2023-01-15T10:10:30.829Z,99831.44
2023-01-15T10:13:10.007Z,99840.34
2023-01-15T10:15:44.803Z,99834.00
2023-01-15T10:18:24.906Z,99837.53
2023-01-15T10:21:09.689Z,99844.53
2023-01-15T10:23:55.461Z,99848.72
2023-01-15T10:26:38.022Z,99847.56
2023-01-15T10:29:33.790Z,99850.19
2023-01-15T10:32:09.539Z,99845.63
2023-01-15T10:35:32.797Z,99848.25
2023-01-15T10:38:26.467Z,99839.25
2023-01-15T10:40:53.418Z,99852.09
2023-01-15T10:43:45.243Z,99843.28
2023-01-15T10:46:20.641Z,99843.28
2023-01-15T10:49:16.707Z,99853.56
2023-01-15T10:51:50.092Z,99842.03
2023-01-15T10:54:23.410Z,99848.38
2023-01-15T10:57:06.050Z,99847.63
2023-01-15T10:59:59.296Z,99840.06
2023-01-15T11:02:44.405Z,99858.63
2023-01-15T11:05:20.661Z,99841.50
2023-01-15T11:10:41.589Z,99835.50
2023-01-15T11:13:40.853Z,99844.66
2023-01-15T11:16:44.697Z,99839.34
2023-01-15T11:19:38.174Z,99841.00
2023-01-15T11:22:16.867Z,99850.66
2023-01-15T11:24:52.719Z,99854.13
2023-01-15T11:27:27.099Z,99851.41
2023-01-15T11:30:01.171Z,99845.28
2023-01-15T11:32:35.469Z,99852.47
2023-01-15T11:35:22.746Z,99836.03
2023-01-15T11:37:49.879Z,99840.38
2023-01-15T11:40:19.572Z,99846.25
2023-01-15T11:43:09.871Z,99847.81
2023-01-15T11:46:09.982Z,99850.25
2023-01-15T11:49:07.003Z,99851.41
2023-01-15T11:51:49.211Z,99857.16
2023-01-15T11:54:16.960Z,99865.28
2023-01-15T11:56:46.024Z,99844.03
2023-01-15T11:59:19.873Z,99861.91
2023-01-15T12:02:04.918Z,99855.94
2023-01-15T12:04:37.578Z,99853.66
2023-01-15T12:07:13.183Z,99865.19
2023-01-15T12:09:54.343Z,99850.34
2023-01-15T12:12:45.182Z,99850.44
2023-01-15T12:15:42.272Z,99847.03
2023-01-15T12:18:24.484Z,99845.09
2023-01-15T12:21:26.898Z,99854.72
2023-01-15T12:24:24.964Z,99849.72
2023-01-15T12:27:30.096Z,99845.47
2023-01-15T12:30:15.264Z,99843.88
2023-01-15T12:32:52.198Z,99844.66
2023-01-15T12:35:31.639Z,99848.41
2023-01-15T12:38:24.801Z,99835.69
2023-01-15T12:41:04.417Z,99841.22
2023-01-15T12:43:50.100Z,99840.25
2023-01-15T12:46:25.643Z,99830.91
2023-01-15T12:49:08.288Z,99840.59
2023-01-15T12:52:05.083Z,99814.50
2023-01-15T12:54:46.758Z,99813.09
2023-01-15T12:57:31.046Z,99832.50
2023-01-15T13:00:12.444Z,99829.72
2023-01-15T13:02:54.514Z,99846.31
2023-01-15T13:05:34.194Z,99838.44
2023-01-15T13:08:32.071Z,99847.34
2023-01-15T13:10:59.162Z,99843.22
2023-01-15T13:13:37.312Z,99834.47
2023-01-15T13:16:10.688Z,99852.59
2023-01-15T13:19:17.299Z,99847.28
2023-01-15T13:21:52.094Z,99855.13
2023-01-15T13:25:12.704Z,99847.34
2023-01-15T13:28:11.942Z,99850.84
2023-01-15T13:31:07.638Z,99836.72
2023-01-15T13:33:52.437Z,99849.81
2023-01-15T13:36:40.522Z,99837.63
2023-01-15T13:39:20.951Z,99845.66
2023-01-15T13:42:10.585Z,99848.91
2023-01-15T13:44:52.131Z,99831.00
2023-01-15T13:47:27.066Z,99841.81
2023-01-15T13:50:07.177Z,99835.34
2023-01-15T13:52:37.749Z,99840.31
2023-01-15T13:55:15.523Z,99840.22
2023-01-15T13:57:43.293Z,99836.69
2023-01-15T14:00:31.029Z,99852.53
2023-01-15T14:03:03.097Z,99857.94
2023-01-15T14:05:36.034Z,99850.38
2023-01-15T14:08:17.343Z,99852.41
2023-01-15T14:10:44.740Z,99862.31
2023-01-15T14:13:51.747Z,99851.22
2023-01-15T14:16:55.652Z,99853.72
2023-01-15T14:20:23.360Z,99861.72
2023-01-15T14:23:23.040Z,99839.03
2023-01-15T14:26:14.677Z,99850.72
2023-01-15T14:29:30.416Z,99848.94
2023-01-15T14:32:24.747Z,99834.84
2023-01-15T14:34:58.862Z,99865.16
2023-01-15T14:37:34.703Z,99858.81
2023-01-15T14:40:06.205Z,99855.84
2023-01-15T14:42:57.749Z,99854.47
2023-01-15T14:45:36.655Z,99854.81
2023-01-15T14:48:18.916Z,99852.81
2023-01-15T14:50:48.814Z,99863.31
2023-01-15T14:53:32.359Z,99864.25
2023-01-15T14:56:27.334Z,99866.28
2023-01-15T14:59:00.251Z,99862.06
2023-01-15T15:01:49.487Z,99883.84
2023-01-15T15:04:25.418Z,99890.06
2023-01-15T15:07:18.669Z,99880.38
2023-01-15T15:10:10.854Z,99867.25
2023-01-15T15:13:36.349Z,99878.06
2023-01-15T15:16:40.725Z,99881.16
2023-01-15T15:19:38.591Z,99871.06
2023-01-15T15:22:12.035Z,99876.63
2023-01-15T15:24:53.215Z,99887.44
2023-01-15T15:27:24.394Z,99877.38
2023-01-15T15:29:51.567Z,99905.56
2023-01-15T15:32:25.007Z,99881.31
2023-01-15T15:34:54.903Z,99886.75
2023-01-15T15:37:29.333Z,99881.56
2023-01-15T15:40:03.428Z,99885.28
2023-01-15T15:43:44.502Z,99879.34
2023-01-15T15:46:55.104Z,99897.97
2023-01-15T15:49:22.171Z,99882.53
2023-01-15T15:51:54.670Z,99894.94
2023-01-15T15:54:28.421Z,99894.19
2023-01-15T15:57:14.960Z,99890.75
2023-01-15T15:59:50.329Z,99900.59
2023-01-15T16:02:37.903Z,99913.03
2023-01-15T16:05:23.765Z,99914.13
2023-01-15T16:07:52.759Z,99913.38
2023-01-15T16:10:26.904Z,99926.44
2023-01-15T16:13:00.166Z,99924.84
2023-01-15T16:15:34.135Z,99919.75
2023-01-15T16:18:06.996Z,99919.88
2023-01-15T16:20:36.835Z,99924.28
2023-01-15T16:23:05.777Z,99915.63
2023-01-15T16:25:37.710Z,99918.22
2023-01-15T16:28:05.767Z,99924.34
2023-01-15T16:30:33.436Z,99923.59
2023-01-15T16:33:05.722Z,99914.97
2023-01-15T16:35:37.252Z,99924.66
2023-01-15T16:38:07.464Z,99928.22
2023-01-15T16:40:40.442Z,99926.56
2023-01-15T16:43:15.033Z,99930.97
2023-01-15T16:46:04.716Z,99933.66
2023-01-15T16:48:39.979Z,99940.69
2023-01-15T16:51:44.930Z,99943.34
2023-01-15T16:54:30.007Z,99945.97
2023-01-15T16:57:27.601Z,99953.91
2023-01-15T17:00:02.165Z,99953.06
2023-01-15T17:02:42.896Z,99948.81
2023-01-15T17:05:24.254Z,99945.28
2023-01-15T17:07:54.082Z,99944.44
2023-01-15T17:10:28.518Z,99939.16
2023-01-15T17:12:58.706Z,99947.88
2023-01-15T17:15:25.609Z,99949.59
2023-01-15T17:17:55.618Z,99949.59
2023-01-15T17:20:27.760Z,99951.34
2023-01-15T17:22:56.280Z,99953.00
2023-01-15T17:25:30.957Z,99958.16
2023-01-15T17:28:00.855Z,99966.88
2023-01-15T17:30:33.203Z,99969.50
2023-01-15T17:33:06.048Z,99952.88
2023-01-15T17:35:41.161Z,99958.84
2023-01-15T17:38:13.912Z,99959.72
2023-01-15T17:40:43.861Z,99965.84
2023-01-15T17:43:18.540Z,99968.63
2023-01-15T17:45:45.738Z,99964.34
2023-01-15T17:48:13.532Z,99966.19
2023-01-15T17:50:41.148Z,99967.09
2023-01-15T17:53:11.244Z,99967.19
2023-01-15T17:55:59.123Z,99969.91
2023-01-15T17:58:44.826Z,99978.75
2023-01-15T18:01:37.990Z,99979.69
2023-01-15T18:04:35.487Z,99979.59
2023-01-15T18:07:03.410Z,99981.25
2023-01-15T18:09:30.963Z,99980.34
2023-01-15T18:11:58.140Z,99993.50
2023-01-15T18:14:26.517Z,99969.13
2023-01-15T18:16:54.820Z,99979.69
2023-01-15T18:19:21.977Z,99983.19
2023-01-15T18:21:49.012Z,99978.06
2023-01-15T18:24:17.228Z,99972.97
2023-01-15T18:26:46.753Z,99973.09
2023-01-15T18:29:14.133Z,99976.72
2023-01-15T18:31:41.201Z,99982.03
2023-01-15T18:34:18.797Z,99969.91
2023-01-15T18:36:46.208Z,99976.94
2023-01-15T18:39:13.895Z,99983.13
2023-01-15T18:41:44.323Z,99977.13
2023-01-15T18:44:36.950Z,99975.50
2023-01-15T18:47:12.413Z,99979.09
2023-01-15T18:49:45.739Z,99984.41
2023-01-15T18:52:35.655Z,99985.38
2023-01-15T18:55:05.604Z,99972.38
2023-01-15T18:57:35.897Z,99981.91
2023-01-15T19:00:04.333Z,99985.34
2023-01-15T19:02:31.381Z,99979.19
2023-01-15T19:04:59.773Z,99970.41
2023-01-15T19:07:31.076Z,99973.81
2023-01-15T19:09:58.092Z,99974.66
2023-01-15T19:12:27.848Z,99968.53
2023-01-15T19:15:18.258Z,99972.88
2023-01-15T19:18:05.465Z,99959.94
2023-01-15T19:20:34.562Z,99962.69
2023-01-15T19:23:06.596Z,99957.56
2023-01-15T19:25:49.635Z,99962.00
2023-01-15T19:28:20.260Z,99959.47
2023-01-15T19:31:11.702Z,99961.19
2023-01-15T19:33:48.996Z,99958.69
2023-01-15T19:36:18.502Z,99954.44
2023-01-15T19:38:45.520Z,99954.47
2023-01-15T19:41:31.398Z,99947.59
2023-01-15T19:44:17.242Z,99939.84
2023-01-15T19:47:08.678Z,99935.59
2023-01-15T19:49:56.053Z,99945.25
2023-01-15T19:52:35.263Z,99933.06
2023-01-15T19:55:10.859Z,99931.16
2023-01-15T19:57:41.571Z,99928.41
2023-01-15T20:00:14.602Z,99923.84
2023-01-15T20:02:43.802Z,99919.31
2023-01-15T20:05:13.343Z,99916.56
2023-01-15T20:07:41.093Z,99912.97
2023-01-15T20:10:15.439Z,99912.84
2023-01-15T20:13:01.557Z,99911.06
2023-01-15T20:15:29.789Z,99904.91
2023-01-15T20:17:57.893Z,99903.13
2023-01-15T20:20:26.424Z,99888.34
2023-01-15T20:22:56.518Z,99892.72
2023-01-15T20:25:28.305Z,99874.34
2023-01-15T20:27:57.406Z,99877.75
2023-01-15T20:30:27.931Z,99869.03
2023-01-15T20:33:08.450Z,99864.69
2023-01-15T20:35:40.433Z,99862.16
2023-01-15T20:38:07.583Z,99858.78
2023-01-15T20:40:34.718Z,99859.69
2023-01-15T20:43:20.665Z,99854.56
2023-01-15T20:45:47.989Z,99847.59
2023-01-15T20:48:15.008Z,99847.59
2023-01-15T20:51:04.462Z,99834.59
2023-01-15T20:53:34.315Z,99829.44
2023-01-15T20:56:04.310Z,99838.25
2023-01-15T20:58:31.450Z,99828.88
2023-01-15T21:01:08.912Z,99816.81
2023-01-15T21:03:37.441Z,99807.47
2023-01-15T21:06:06.747Z,99810.13
2023-01-15T21:08:35.534Z,99806.72
2023-01-15T21:11:03.196Z,99806.72
2023-01-15T21:13:31.108Z,99805.88
2023-01-15T21:16:03.084Z,99804.91
2023-01-15T21:18:35.502Z,99797.84
2023-01-15T21:21:12.488Z,99795.88
2023-01-15T21:23:40.322Z,99793.19
2023-01-15T21:26:07.410Z,99786.94
2023-01-15T21:28:34.409Z,99778.94
2023-01-15T21:31:04.095Z,99775.28
2023-01-15T21:33:31.166Z,99776.91
2023-01-15T21:35:58.217Z,99770.75
2023-01-15T21:38:25.259Z,99761.91
2023-01-15T21:40:52.309Z,99757.56
2023-01-15T21:43:37.861Z,99753.25
2023-01-15T21:46:05.910Z,99749.84
2023-01-15T21:48:33.584Z,99745.63
2023-01-15T21:51:06.077Z,99752.69
2023-01-15T21:53:33.248Z,99745.75
2023-01-15T21:56:00.268Z,99743.06
2023-01-15T21:58:27.257Z,99736.91
2023-01-15T22:00:54.314Z,99733.28
2023-01-15T22:03:21.403Z,99729.72
2023-01-15T22:05:48.375Z,99717.53
2023-01-15T22:08:16.980Z,99715.88
2023-01-15T22:10:44.029Z,99706.34
2023-01-15T22:13:11.015Z,99703.72
2023-01-15T22:15:38.063Z,99705.44
2023-01-15T22:18:05.094Z,99690.47
2023-01-15T22:20:32.172Z,99690.34
2023-01-15T22:22:59.148Z,99690.22
2023-01-15T22:25:26.105Z,99686.66
2023-01-15T22:27:54.083Z,99677.91
2023-01-15T22:30:21.222Z,99682.19
2023-01-15T22:32:49.563Z,99663.84
2023-01-15T22:35:18.592Z,99657.72
2023-01-15T22:37:45.563Z,99664.59
2023-01-15T22:40:13.619Z,99648.94
2023-01-15T22:42:40.621Z,99651.47
2023-01-15T22:45:08.171Z,99653.13
2023-01-15T22:47:35.196Z,99634.84
2023-01-15T22:50:02.216Z,99641.66
2023-01-15T22:52:29.277Z,99630.31
2023-01-15T22:54:56.380Z,99626.81
2023-01-15T22:57:23.607Z,99621.56
2023-01-15T22:59:50.695Z,99613.72
2023-01-15T23:02:38.424Z,99610.22
2023-01-15T23:05:07.501Z,99607.59
2023-01-15T23:07:36.954Z,99597.22
2023-01-15T23:10:09.806Z,99592.88
2023-01-15T23:12:37.823Z,99582.44
2023-01-15T23:15:12.249Z,99585.06
2023-01-15T23:17:40.219Z,99572.88
2023-01-15T23:20:09.635Z,99579.81
2023-01-15T23:22:37.845Z,99573.69
2023-01-15T23:25:05.870Z,99570.16
2023-01-15T23:27:32.965Z,99560.63
2023-01-15T23:29:59.989Z,99551.88
2023-01-15T23:32:27.003Z,99555.34
2023-01-15T23:34:53.964Z,99555.28
2023-01-15T23:37:20.973Z,99557.03
2023-01-15T23:39:47.972Z,99550.09
2023-01-15T23:42:33.612Z,99545.75
2023-01-15T23:45:19.517Z,99544.94
2023-01-15T23:47:46.486Z,99548.53
2023-01-15T23:50:13.472Z,99547.69
2023-01-15T23:52:40.423Z,99544.34
2023-01-15T23:55:08.034Z,99540.19
2023-01-15T23:57:35.057Z,99541.16
